Time;durP1;ratioP1;P1;durP2;ratioP2;P2;SDS_P1;SDS_P2;PMS_P1;PMS_P2;Temp;Humidity;BMP_temperature;BMP_pressure;BME280_temperature;BME280_humidity;BME280_pressure;Samples;Min_cycle;Max_cycle;Signal;HPM_P1;HPM_P2
2023/03/04 00:01:12;;;;;;;0.10;0.10;;;7.30;99.90;;;;;;5029949;28;20054;-62
2023/03/04 00:03:37;;;;;;;0.40;0.40;;;7.40;99.90;;;;;;5029274;28;20128;-62
2023/03/04 00:06:03;;;;;;;0.03;0.03;;;7.40;99.90;;;;;;5028077;28;20049;-62
2023/03/04 00:08:29;;;;;;;2.20;2.00;;;7.40;99.90;;;;;;5028643;28;20042;-63
2023/03/04 00:10:55;;;;;;;0.10;0.10;;;7.30;99.90;;;;;;5028428;28;20564;-63
2023/03/04 00:13:21;;;;;;;0.10;0.10;;;7.30;99.90;;;;;;5029821;28;20481;-62
2023/03/04 00:15:47;;;;;;;0.08;0.08;;;7.40;99.90;;;;;;5029324;28;20049;-62
2023/03/04 00:18:13;;;;;;;0.10;0.10;;;7.30;99.90;;;;;;5030187;28;20073;-62
2023/03/04 00:20:38;;;;;;;0.10;0.10;;;7.30;99.90;;;;;;5023238;28;20083;-62
2023/03/04 00:23:04;;;;;;;0.20;0.20;;;7.30;99.90;;;;;;5029184;28;20047;-63
2023/03/04 00:25:30;;;;;;;0.63;0.63;;;7.30;99.90;;;;;;5028831;28;20709;-62
2023/03/04 00:27:57;;;;;;;0.00;0.00;;;7.40;99.90;;;;;;5027927;28;20025;-63
2023/03/04 00:30:22;;;;;;;0.20;0.20;;;7.40;99.90;;;;;;5026546;28;20095;-62
2023/03/04 00:32:48;;;;;;;0.25;0.25;;;7.40;99.90;;;;;;5029476;28;20042;-62
2023/03/04 00:35:14;;;;;;;0.00;0.00;;;7.40;99.90;;;;;;5026665;28;20029;-63
2023/03/04 00:37:40;;;;;;;0.00;0.00;;;7.30;99.90;;;;;;5028169;28;20124;-62
2023/03/04 00:40:06;;;;;;;0.00;0.00;;;7.30;99.90;;;;;;5026382;28;20067;-62
2023/03/04 00:42:32;;;;;;;0.03;0.03;;;7.30;99.90;;;;;;5028663;28;20512;-62
2023/03/04 00:44:57;;;;;;;0.22;0.22;;;7.30;99.90;;;;;;5027384;28;20120;-62
2023/03/04 00:47:23;;;;;;;1.08;1.00;;;7.40;99.90;;;;;;5029579;28;20080;-62
2023/03/04 00:49:48;;;;;;;0.63;0.63;;;7.20;99.90;;;;;;5009193;28;20037;-62
2023/03/04 00:52:14;;;;;;;0.10;0.10;;;7.30;99.90;;;;;;5029091;28;20053;-62
2023/03/04 00:54:40;;;;;;;0.10;0.10;;;7.30;99.90;;;;;;5010861;28;20160;-62
2023/03/04 00:57:05;;;;;;;0.25;0.25;;;7.20;99.90;;;;;;5028327;28;20041;-62
2023/03/04 00:59:31;;;;;;;0.10;0.10;;;7.30;99.90;;;;;;5026596;28;20036;-62
2023/03/04 01:01:57;;;;;;;0.10;0.10;;;7.20;99.90;;;;;;5029567;28;20141;-62
2023/03/04 01:04:22;;;;;;;0.10;0.10;;;7.20;99.90;;;;;;5028336;28;20137;-62
2023/03/04 01:06:48;;;;;;;0.10;0.10;;;7.30;99.90;;;;;;5028992;28;20485;-62
2023/03/04 01:09:14;;;;;;;0.22;0.22;;;7.30;99.90;;;;;;5029670;28;20442;-62
2023/03/04 01:11:39;;;;;;;0.10;0.10;;;7.20;99.90;;;;;;5028535;28;20103;-62
2023/03/04 01:14:05;;;;;;;0.47;0.45;;;7.20;99.90;;;;;;5027560;28;20053;-62
2023/03/04 01:16:30;;;;;;;0.10;0.10;;;7.20;99.90;;;;;;5029440;28;20497;-62
2023/03/04 01:18:56;;;;;;;0.10;0.10;;;7.30;99.90;;;;;;5025577;28;20124;-62
2023/03/04 01:21:22;;;;;;;0.20;0.20;;;7.30;99.90;;;;;;5007294;28;20132;-62
2023/03/04 01:23:47;;;;;;;0.10;0.10;;;7.30;99.90;;;;;;5029462;28;20041;-62
2023/03/04 01:26:13;;;;;;;0.10;0.10;;;7.30;99.90;;;;;;5027786;28;20044;-62
2023/03/04 01:28:38;;;;;;;0.10;0.10;;;7.30;99.90;;;;;;5029462;28;21284;-62
2023/03/04 01:31:04;;;;;;;0.40;0.40;;;7.20;99.90;;;;;;5033023;28;20037;-62
2023/03/04 01:33:30;;;;;;;0.47;0.47;;;7.20;99.90;;;;;;5031226;28;20064;-62
2023/03/04 01:35:57;;;;;;;0.10;0.10;;;7.20;99.90;;;;;;5032113;28;20047;-62
2023/03/04 01:38:22;;;;;;;0.10;0.10;;;7.20;99.90;;;;;;5032827;28;20045;-62
2023/03/04 01:40:49;;;;;;;0.17;0.17;;;7.10;99.90;;;;;;5032475;28;20061;-62
2023/03/04 01:43:22;;;;;;;0.10;0.10;;;7.10;99.90;;;;;;5032178;28;20041;-63
2023/03/04 01:45:49;;;;;;;0.10;0.10;;;7.10;99.90;;;;;;5033455;28;20037;-63
2023/03/04 01:48:20;;;;;;;0.10;0.10;;;7.20;99.90;;;;;;5031494;28;20064;-63
2023/03/04 01:50:45;;;;;;;0.00;0.00;;;7.10;99.90;;;;;;5033281;28;20121;-62
2023/03/04 01:53:18;;;;;;;0.10;0.10;;;7.20;99.90;;;;;;5031793;28;20137;-62
2023/03/04 01:55:44;;;;;;;2.17;1.55;;;7.20;99.90;;;;;;5032275;28;20057;-62
2023/03/04 01:58:11;;;;;;;0.10;0.10;;;7.20;99.90;;;;;;5030727;28;20041;-62
2023/03/04 02:00:38;;;;;;;0.20;0.20;;;7.20;99.90;;;;;;5032985;28;20045;-63
2023/03/04 02:03:11;;;;;;;0.10;0.10;;;7.20;99.90;;;;;;5031893;28;20045;-63
2023/03/04 02:05:40;;;;;;;0.20;0.20;;;7.20;99.90;;;;;;5031638;28;20543;-62
2023/03/04 02:08:06;;;;;;;0.10;0.10;;;7.20;99.90;;;;;;5032279;28;20052;-62
2023/03/04 02:10:33;;;;;;;0.00;0.00;;;7.20;99.90;;;;;;5032598;28;20055;-63
2023/03/04 02:13:00;;;;;;;13.90;2.58;;;7.10;99.90;;;;;;5030416;28;20397;-62
2023/03/04 02:15:26;;;;;;;0.00;0.00;;;7.10;99.90;;;;;;5029496;28;20626;-62
2023/03/04 02:17:52;;;;;;;0.10;0.10;;;7.10;99.90;;;;;;5032205;28;20489;-62
2023/03/04 02:20:50;;;;;;;0.10;0.10;;;7.20;99.90;;;;;;5031040;28;20124;-63
2023/03/04 02:23:24;;;;;;;0.00;0.00;;;7.10;99.90;;;;;;5019629;28;20080;-62
2023/03/04 02:26:11;;;;;;;0.00;0.00;;;7.20;99.90;;;;;;5031892;28;20404;-63
2023/03/04 02:28:37;;;;;;;0.10;0.10;;;7.10;99.90;;;;;;5029692;28;20045;-62
2023/03/04 02:31:03;;;;;;;0.00;0.00;;;7.10;99.90;;;;;;5031203;28;20056;-63
2023/03/04 02:33:29;;;;;;;0.57;0.57;;;7.20;99.90;;;;;;5030823;28;20037;-62
2023/03/04 02:35:54;;;;;;;0.20;0.20;;;7.10;99.90;;;;;;5030913;28;20496;-62
2023/03/04 02:38:20;;;;;;;0.10;0.10;;;7.10;99.90;;;;;;5026299;28;20052;-62
2023/03/04 02:40:49;;;;;;;0.10;0.10;;;7.10;99.90;;;;;;5009633;28;20065;-63
2023/03/04 02:43:14;;;;;;;0.13;0.13;;;7.10;99.90;;;;;;5009593;28;20053;-62
2023/03/04 02:45:46;;;;;;;0.00;0.00;;;7.10;99.90;;;;;;5010561;28;20438;-63
2023/03/04 02:48:14;;;;;;;0.10;0.10;;;7.20;99.90;;;;;;5011148;28;20053;-62
2023/03/04 02:50:44;;;;;;;43.83;2.05;;;7.20;99.90;;;;;;5008696;28;20046;-62
2023/03/04 02:53:10;;;;;;;0.10;0.10;;;7.20;99.90;;;;;;5011963;28;20069;-62
2023/03/04 02:55:36;;;;;;;0.10;0.10;;;7.20;99.90;;;;;;5011985;28;20049;-63
2023/03/04 02:58:02;;;;;;;0.10;0.10;;;7.20;99.90;;;;;;5009150;28;20515;-62
2023/03/04 03:00:28;;;;;;;0.10;0.10;;;7.20;99.90;;;;;;5010608;28;20049;-63
2023/03/04 03:02:55;;;;;;;0.03;0.03;;;7.20;99.90;;;;;;5009208;28;20129;-62
2023/03/04 03:05:23;;;;;;;0.30;0.30;;;7.20;99.90;;;;;;5009840;28;20156;-62
2023/03/04 03:07:48;;;;;;;0.10;0.10;;;7.20;99.90;;;;;;5010741;28;20437;-62
2023/03/04 03:10:14;;;;;;;0.10;0.10;;;7.20;99.90;;;;;;5010806;28;20057;-62
2023/03/04 03:12:40;;;;;;;0.10;0.10;;;7.20;99.90;;;;;;5010928;28;20037;-63
2023/03/04 03:15:06;;;;;;;0.05;0.05;;;7.20;99.90;;;;;;5011090;28;20050;-62
2023/03/04 03:17:31;;;;;;;0.10;0.10;;;7.20;99.90;;;;;;5010073;28;20037;-63
2023/03/04 03:19:57;;;;;;;0.10;0.10;;;7.20;99.90;;;;;;5004463;28;20103;-62
2023/03/04 03:22:23;;;;;;;0.47;0.47;;;7.20;99.90;;;;;;5011087;28;20038;-63
2023/03/04 03:24:48;;;;;;;0.10;0.10;;;7.20;99.90;;;;;;5011268;28;20046;-62
2023/03/04 03:27:14;;;;;;;0.10;0.10;;;7.20;99.90;;;;;;5009908;28;20511;-62
2023/03/04 03:29:40;;;;;;;0.43;0.43;;;7.20;99.90;;;;;;5010238;28;20054;-63
2023/03/04 03:32:05;;;;;;;4.80;1.65;;;7.20;99.90;;;;;;5009924;28;20386;-62
2023/03/04 03:34:31;;;;;;;0.10;0.10;;;7.20;99.90;;;;;;5010369;28;20050;-63
2023/03/04 03:36:57;;;;;;;0.10;0.10;;;7.20;99.90;;;;;;5010014;28;20050;-62
2023/03/04 03:39:22;;;;;;;0.00;0.00;;;7.20;99.90;;;;;;5007052;28;20053;-62
2023/03/04 03:41:48;;;;;;;0.10;0.10;;;7.20;99.90;;;;;;5030424;28;20069;-62
2023/03/04 03:44:14;;;;;;;0.10;0.10;;;7.20;99.90;;;;;;5029845;28;20056;-62
2023/03/04 03:46:40;;;;;;;0.10;0.10;;;7.20;99.90;;;;;;5029340;28;20152;-63
2023/03/04 03:49:05;;;;;;;0.10;0.10;;;7.20;99.90;;;;;;5030738;28;20461;-62
2023/03/04 03:51:31;;;;;;;0.00;0.00;;;7.20;99.90;;;;;;5030178;28;20128;-62
2023/03/04 03:53:56;;;;;;;0.10;0.10;;;7.10;99.90;;;;;;5028956;28;20132;-62
2023/03/04 03:56:22;;;;;;;0.10;0.10;;;7.20;99.90;;;;;;5030466;28;20116;-62
2023/03/04 03:58:48;;;;;;;0.00;0.00;;;7.20;99.90;;;;;;5029120;28;20037;-61
2023/03/04 04:01:13;;;;;;;0.10;0.10;;;7.20;99.90;;;;;;5028302;28;20725;-62
2023/03/04 04:03:39;;;;;;;0.10;0.10;;;7.20;99.90;;;;;;5029430;28;20042;-61
2023/03/04 04:06:05;;;;;;;0.10;0.10;;;7.20;99.90;;;;;;5026344;28;20393;-61
2023/03/04 04:08:32;;;;;;;0.20;0.20;;;7.20;99.90;;;;;;5023823;28;20061;-61
2023/03/04 04:10:57;;;;;;;0.00;0.00;;;7.10;99.90;;;;;;5029959;28;20056;-61
2023/03/04 04:13:23;;;;;;;0.10;0.10;;;7.20;99.90;;;;;;5029063;28;20042;-61
2023/03/04 04:15:51;;;;;;;0.00;0.00;;;7.20;99.90;;;;;;5028359;28;20061;-62
2023/03/04 04:18:17;;;;;;;0.10;0.10;;;7.20;99.90;;;;;;5030550;28;20041;-61
2023/03/04 04:20:42;;;;;;;0.10;0.10;;;7.20;99.90;;;;;;5016986;28;20106;-61
2023/03/04 04:23:08;;;;;;;11.32;1.23;;;7.20;99.90;;;;;;5028687;28;20435;-61
2023/03/04 04:25:33;;;;;;;0.10;0.10;;;7.20;99.90;;;;;;5028953;28;20038;-61
2023/03/04 04:27:59;;;;;;;0.00;0.00;;;7.20;99.90;;;;;;5027232;28;20045;-61
2023/03/04 04:30:24;;;;;;;0.10;0.10;;;7.10;99.90;;;;;;5027456;28;20049;-61
2023/03/04 04:32:50;;;;;;;0.08;0.08;;;7.20;99.90;;;;;;5028493;28;20562;-61
2023/03/04 04:35:16;;;;;;;0.10;0.10;;;7.10;99.90;;;;;;5029608;28;20041;-62
2023/03/04 04:37:42;;;;;;;0.10;0.10;;;7.10;99.90;;;;;;5029602;28;20488;-62
2023/03/04 04:40:08;;;;;;;0.00;0.00;;;7.10;99.90;;;;;;5029817;28;20057;-62
2023/03/04 04:42:34;;;;;;;0.10;0.10;;;7.10;99.90;;;;;;5028788;28;20118;-62
2023/03/04 04:44:59;;;;;;;0.10;0.10;;;7.10;99.90;;;;;;5029394;28;20545;-62
2023/03/04 04:47:25;;;;;;;0.10;0.10;;;7.10;99.90;;;;;;5030034;28;20033;-62
2023/03/04 04:49:50;;;;;;;0.10;0.10;;;7.10;99.90;;;;;;5008597;28;20080;-62
2023/03/04 04:52:16;;;;;;;0.10;0.10;;;7.10;99.90;;;;;;5030230;28;20130;-62
2023/03/04 04:54:43;;;;;;;0.00;0.00;;;7.10;99.90;;;;;;5017826;28;20064;-62
2023/03/04 04:57:08;;;;;;;0.00;0.00;;;7.10;99.90;;;;;;5027263;28;20576;-62
2023/03/04 04:59:34;;;;;;;0.10;0.10;;;7.10;99.90;;;;;;5027103;28;20120;-62
2023/03/04 05:02:00;;;;;;;0.10;0.10;;;7.10;99.90;;;;;;5011818;28;20034;-62
2023/03/04 05:04:25;;;;;;;0.00;0.00;;;7.00;99.90;;;;;;5031572;28;20095;-62
2023/03/04 05:06:51;;;;;;;0.10;0.10;;;7.00;99.90;;;;;;5033017;28;20116;-62
2023/03/04 05:09:18;;;;;;;0.10;0.10;;;6.90;99.90;;;;;;5033867;28;20146;-62
2023/03/04 05:11:43;;;;;;;0.00;0.00;;;6.90;99.90;;;;;;5032330;28;20041;-62
2023/03/04 05:14:09;;;;;;;0.10;0.10;;;6.90;99.90;;;;;;5033546;28;20045;-62
2023/03/04 05:16:35;;;;;;;0.10;0.10;;;6.90;99.90;;;;;;5032764;28;20042;-62
2023/03/04 05:19:00;;;;;;;0.10;0.10;;;6.90;99.90;;;;;;5030120;28;20042;-62
2023/03/04 05:21:26;;;;;;;0.05;0.05;;;6.90;99.90;;;;;;5022340;28;20041;-62
2023/03/04 05:23:51;;;;;;;0.00;0.00;;;6.90;99.90;;;;;;5032994;28;20120;-62
2023/03/04 05:26:17;;;;;;;0.00;0.00;;;6.90;99.90;;;;;;5031471;28;20048;-62
2023/03/04 05:28:44;;;;;;;0.05;0.05;;;6.90;99.90;;;;;;5031545;28;20065;-62
2023/03/04 05:31:10;;;;;;;0.10;0.10;;;6.90;99.90;;;;;;5032701;28;20412;-62
2023/03/04 05:33:36;;;;;;;0.10;0.10;;;6.90;99.90;;;;;;5032223;28;20041;-62
2023/03/04 05:36:04;;;;;;;0.10;0.10;;;6.90;99.90;;;;;;5032064;28;20059;-62
2023/03/04 05:38:29;;;;;;;0.10;0.10;;;6.90;99.90;;;;;;5014877;28;20091;-62
2023/03/04 05:41:01;;;;;;;0.65;0.65;;;6.90;99.90;;;;;;5014298;28;20053;-62
2023/03/04 05:43:27;;;;;;;0.10;0.10;;;7.00;99.90;;;;;;5030841;28;20045;-62
2023/03/04 05:45:54;;;;;;;0.10;0.10;;;6.90;99.90;;;;;;5032316;28;20046;-62
2023/03/04 05:48:20;;;;;;;0.00;0.00;;;6.90;99.90;;;;;;5031659;28;20029;-62
2023/03/04 05:50:45;;;;;;;0.00;0.00;;;6.90;99.90;;;;;;5033047;28;20060;-62
2023/03/04 05:53:11;;;;;;;0.10;0.10;;;7.00;99.90;;;;;;5030354;28;20050;-62
2023/03/04 05:55:37;;;;;;;0.80;0.80;;;7.00;99.90;;;;;;5032408;28;20044;-62
2023/03/04 05:58:03;;;;;;;0.10;0.10;;;7.00;99.90;;;;;;5032146;28;20397;-62
2023/03/04 06:00:29;;;;;;;0.20;0.20;;;7.00;99.90;;;;;;5031636;28;20076;-62
2023/03/04 06:02:54;;;;;;;0.10;0.10;;;6.90;99.90;;;;;;5011991;28;20056;-62
2023/03/04 06:05:20;;;;;;;0.08;0.08;;;7.00;99.90;;;;;;5032850;28;20045;-62
2023/03/04 06:07:46;;;;;;;0.00;0.00;;;7.00;99.90;;;;;;5032300;28;20516;-62
2023/03/04 06:10:14;;;;;;;1.88;1.08;;;7.00;99.90;;;;;;5031543;28;20378;-62
2023/03/04 06:12:41;;;;;;;0.00;0.00;;;6.90;99.90;;;;;;5031043;28;20036;-62
2023/03/04 06:15:08;;;;;;;0.10;0.10;;;6.90;99.90;;;;;;5031181;28;20401;-62
2023/03/04 06:17:35;;;;;;;0.10;0.10;;;7.00;99.90;;;;;;5027891;28;20056;-62
2023/03/04 06:20:00;;;;;;;0.28;0.28;;;6.90;99.90;;;;;;5030889;28;20044;-64
2023/03/04 06:22:26;;;;;;;0.10;0.10;;;6.90;99.90;;;;;;5030232;28;20038;-62
2023/03/04 06:24:52;;;;;;;0.47;0.47;;;6.90;99.90;;;;;;5031647;28;20052;-62
2023/03/04 06:27:17;;;;;;;0.00;0.00;;;6.90;99.90;;;;;;5014677;28;20057;-62
2023/03/04 06:29:43;;;;;;;0.10;0.10;;;6.90;99.90;;;;;;5030597;28;20038;-62
2023/03/04 06:32:09;;;;;;;0.20;0.20;;;6.90;99.90;;;;;;5032378;28;20121;-62
2023/03/04 06:34:35;;;;;;;0.00;0.00;;;6.80;99.90;;;;;;5031313;28;20127;-62
2023/03/04 06:37:00;;;;;;;0.10;0.10;;;6.80;99.90;;;;;;5031662;28;20090;-62
2023/03/04 06:39:26;;;;;;;0.10;0.10;;;6.80;99.90;;;;;;5031057;28;21049;-62
2023/03/04 06:41:51;;;;;;;0.10;0.10;;;6.80;99.90;;;;;;5031864;28;20042;-62
2023/03/04 06:44:17;;;;;;;0.00;0.00;;;6.80;99.90;;;;;;5031975;28;20041;-62
2023/03/04 06:46:43;;;;;;;0.00;0.00;;;6.70;99.90;;;;;;5030447;28;20473;-62
2023/03/04 06:49:09;;;;;;;0.10;0.10;;;6.80;99.90;;;;;;5030268;28;20480;-62
2023/03/04 06:51:35;;;;;;;0.10;0.10;;;6.70;99.90;;;;;;5029391;28;20033;-62
2023/03/04 06:54:00;;;;;;;0.10;0.10;;;6.80;99.90;;;;;;5030990;28;20052;-62
2023/03/04 06:56:26;;;;;;;0.17;0.17;;;6.80;99.90;;;;;;5031278;28;20046;-62
2023/03/04 06:58:52;;;;;;;0.10;0.10;;;6.80;99.90;;;;;;5031287;28;20408;-62
2023/03/04 07:01:23;;;;;;;0.10;0.10;;;6.90;99.90;;;;;;5014044;28;20128;-62
2023/03/04 07:03:49;;;;;;;0.20;0.20;;;6.80;99.90;;;;;;5030274;28;20047;-62
2023/03/04 07:06:19;;;;;;;1.02;0.63;;;6.90;99.90;;;;;;5031993;28;20389;-62
2023/03/04 07:08:45;;;;;;;0.10;0.10;;;6.90;99.90;;;;;;5030696;28;20126;-62
2023/03/04 07:11:11;;;;;;;0.10;0.10;;;6.90;99.90;;;;;;5012731;28;20046;-62
2023/03/04 07:13:37;;;;;;;0.00;0.00;;;7.00;99.90;;;;;;5031629;28;20134;-62
2023/03/04 07:16:04;;;;;;;0.10;0.10;;;7.00;99.90;;;;;;5029513;28;20666;-62
2023/03/04 07:18:29;;;;;;;0.47;0.47;;;7.00;99.90;;;;;;5027315;28;20037;-62
2023/03/04 07:20:55;;;;;;;0.10;0.10;;;7.10;99.90;;;;;;5027419;28;20083;-62
2023/03/04 07:23:21;;;;;;;0.08;0.08;;;7.10;99.90;;;;;;5031224;28;20482;-62
2023/03/04 07:25:48;;;;;;;0.30;0.30;;;7.10;99.90;;;;;;5010840;28;20045;-62
2023/03/04 07:28:13;;;;;;;0.10;0.10;;;7.10;99.90;;;;;;5031330;28;20033;-62
2023/03/04 07:30:39;;;;;;;0.00;0.00;;;7.10;99.90;;;;;;5028909;28;20096;-62
2023/03/04 07:33:05;;;;;;;0.00;0.00;;;7.10;99.90;;;;;;5030459;28;20464;-62
2023/03/04 07:35:30;;;;;;;0.25;0.25;;;7.10;99.90;;;;;;5029102;28;20041;-62
2023/03/04 07:37:56;;;;;;;0.00;0.00;;;7.10;99.90;;;;;;5030702;28;20112;-62
2023/03/04 07:40:21;;;;;;;0.10;0.10;;;7.10;99.90;;;;;;5026389;28;20144;-62
2023/03/04 07:42:55;;;;;;;0.10;0.10;;;7.10;99.90;;;;;;5030473;28;20060;-62
2023/03/04 07:45:22;;;;;;;0.10;0.10;;;7.20;99.90;;;;;;5029019;28;20049;-62
2023/03/04 07:47:48;;;;;;;1.08;1.00;;;7.20;99.90;;;;;;5028964;28;20513;-62
2023/03/04 07:50:14;;;;;;;0.10;0.10;;;7.10;99.90;;;;;;5029446;28;20092;-62
2023/03/04 07:52:41;;;;;;;0.10;0.10;;;7.10;99.90;;;;;;5012252;28;20111;-62
2023/03/04 07:55:08;;;;;;;0.10;0.10;;;7.10;99.90;;;;;;5008998;28;20041;-62
2023/03/04 07:57:33;;;;;;;0.00;0.00;;;7.20;99.90;;;;;;5029577;28;20080;-61
2023/03/04 07:59:59;;;;;;;0.00;0.00;;;7.20;99.90;;;;;;5028646;28;20077;-62
2023/03/04 08:02:25;;;;;;;0.10;0.10;;;7.30;99.90;;;;;;5030225;28;20091;-62
2023/03/04 08:04:50;;;;;;;0.10;0.10;;;7.40;99.90;;;;;;5029359;28;20557;-62
2023/03/04 08:07:16;;;;;;;0.10;0.10;;;7.40;99.90;;;;;;5029777;28;20500;-62
2023/03/04 08:09:42;;;;;;;0.00;0.00;;;7.40;99.90;;;;;;5028907;28;20060;-62
2023/03/04 08:12:07;;;;;;;0.00;0.00;;;7.50;99.90;;;;;;5029544;28;20485;-62
2023/03/04 08:14:33;;;;;;;0.10;0.10;;;7.40;99.90;;;;;;5028171;28;20053;-62
2023/03/04 08:16:59;;;;;;;0.10;0.10;;;7.50;99.90;;;;;;5028934;28;20044;-62
2023/03/04 08:19:24;;;;;;;0.90;0.88;;;7.50;99.90;;;;;;5027213;28;20049;-62
2023/03/04 08:21:50;;;;;;;0.00;0.00;;;7.50;99.90;;;;;;5028800;28;20049;-62
2023/03/04 08:24:16;;;;;;;0.10;0.10;;;7.50;99.90;;;;;;5026807;28;20037;-62
2023/03/04 08:26:45;;;;;;;0.10;0.10;;;7.60;99.90;;;;;;5029767;28;20037;-62
2023/03/04 08:29:15;;;;;;;0.20;0.20;;;7.50;99.90;;;;;;5028464;28;20045;-62
2023/03/04 08:31:40;;;;;;;0.20;0.20;;;7.60;99.90;;;;;;5027505;28;20513;-61
2023/03/04 08:34:08;;;;;;;0.10;0.10;;;7.50;99.90;;;;;;5029706;28;20493;-62
2023/03/04 08:36:35;;;;;;;0.05;0.05;;;7.50;99.90;;;;;;5028503;28;20175;-62
2023/03/04 08:39:01;;;;;;;0.10;0.10;;;7.50;99.90;;;;;;5028855;28;20037;-61
2023/03/04 08:41:26;;;;;;;0.10;0.10;;;7.50;99.90;;;;;;5028462;28;20160;-62
2023/03/04 08:43:52;;;;;;;0.10;0.10;;;7.50;99.90;;;;;;5028274;28;20246;-62
2023/03/04 08:46:18;;;;;;;0.30;0.30;;;7.50;99.90;;;;;;5028981;28;20405;-62
2023/03/04 08:48:43;;;;;;;0.25;0.25;;;7.60;99.90;;;;;;5012259;28;20064;-62
2023/03/04 08:51:11;;;;;;;0.10;0.10;;;7.60;99.90;;;;;;5029123;28;20493;-62
2023/03/04 08:53:38;;;;;;;0.20;0.20;;;7.70;99.90;;;;;;5028460;28;20126;-62
2023/03/04 08:56:04;;;;;;;0.63;0.63;;;7.70;99.90;;;;;;5028817;28;20062;-62
2023/03/04 08:58:30;;;;;;;0.10;0.10;;;7.70;99.90;;;;;;5028769;28;20060;-62
2023/03/04 09:00:59;;;;;;;0.10;0.10;;;7.60;99.90;;;;;;5009241;28;20396;-62
2023/03/04 09:03:25;;;;;;;0.03;0.03;;;7.70;99.90;;;;;;5026071;28;20116;-62
2023/03/04 09:05:51;;;;;;;0.15;0.15;;;7.60;99.90;;;;;;5026353;28;20132;-61
2023/03/04 09:08:17;;;;;;;0.10;0.10;;;7.60;99.90;;;;;;5029641;28;20384;-62
2023/03/04 09:10:44;;;;;;;0.10;0.10;;;7.60;99.90;;;;;;5027898;28;20053;-62
2023/03/04 09:13:10;;;;;;;0.10;0.10;;;7.70;99.90;;;;;;5028329;28;20552;-61
2023/03/04 09:15:37;;;;;;;0.10;0.10;;;7.70;99.90;;;;;;5011450;28;20050;-61
2023/03/04 09:18:04;;;;;;;0.13;0.13;;;7.70;99.90;;;;;;5025449;28;20054;-61
2023/03/04 09:20:30;;;;;;;0.10;0.10;;;7.70;99.90;;;;;;5024060;28;20049;-62
2023/03/04 09:22:56;;;;;;;0.00;0.00;;;7.70;99.90;;;;;;5028177;28;20037;-61
2023/03/04 09:25:21;;;;;;;0.00;0.00;;;7.80;99.90;;;;;;5028445;28;20115;-61
2023/03/04 09:27:47;;;;;;;0.15;0.15;;;7.80;99.90;;;;;;5028478;28;20037;-62
2023/03/04 09:30:13;;;;;;;0.30;0.30;;;7.70;99.90;;;;;;5028692;28;20053;-62
2023/03/04 09:32:40;;;;;;;0.10;0.10;;;7.80;99.90;;;;;;5028364;28;20814;-62
2023/03/04 09:35:06;;;;;;;0.10;0.10;;;7.80;99.90;;;;;;5029043;28;20053;-62
2023/03/04 09:37:33;;;;;;;0.10;0.10;;;7.80;99.90;;;;;;5028412;28;20041;-62
2023/03/04 09:39:58;;;;;;;0.10;0.10;;;7.90;99.90;;;;;;5027810;28;20504;-61
2023/03/04 09:42:29;;;;;;;0.10;0.10;;;7.80;99.90;;;;;;5027028;28;20052;-61
2023/03/04 09:44:56;;;;;;;0.45;0.45;;;7.80;99.90;;;;;;5026422;28;20191;-61
2023/03/04 09:47:23;;;;;;;0.10;0.10;;;7.80;99.90;;;;;;5004841;28;20485;-61
2023/03/04 09:49:59;;;;;;;0.10;0.10;;;7.90;99.90;;;;;;5025441;28;20049;-61
2023/03/04 09:53:00;;;;;;;0.55;0.55;;;7.90;99.90;;;;;;5030276;28;20477;-61
2023/03/04 09:55:36;;;;;;;0.10;0.10;;;8.00;99.90;;;;;;5031123;28;20049;-61
2023/03/04 09:58:20;;;;;;;0.00;0.00;;;8.00;99.90;;;;;;5030695;28;20504;-61
2023/03/04 10:00:55;;;;;;;2.53;1.45;;;8.10;99.90;;;;;;5027025;28;20073;-61
2023/03/04 10:03:30;;;;;;;0.10;0.10;;;8.00;99.90;;;;;;5021920;28;20177;-61
2023/03/04 10:06:08;;;;;;;0.10;0.10;;;8.10;99.90;;;;;;5028669;28;20041;-61
2023/03/04 10:08:57;;;;;;;0.25;0.25;;;8.00;99.90;;;;;;5026361;28;20523;-61
2023/03/04 10:11:23;;;;;;;0.47;0.45;;;8.00;99.90;;;;;;5027220;28;20053;-61
2023/03/04 10:14:18;;;;;;;0.10;0.10;;;8.00;99.90;;;;;;5013420;28;20064;-61
2023/03/04 10:16:53;;;;;;;0.10;0.10;;;8.00;99.90;;;;;;5028862;28;20046;-61
2023/03/04 10:19:40;;;;;;;0.17;0.17;;;8.10;99.90;;;;;;5028672;28;20046;-61
2023/03/04 10:22:27;;;;;;;0.20;0.20;;;8.20;99.90;;;;;;5021975;28;20496;-61
2023/03/04 10:24:57;;;;;;;0.10;0.10;;;8.30;99.90;;;;;;5024615;28;20061;-61
2023/03/04 10:27:23;;;;;;;0.00;0.00;;;8.40;99.90;;;;;;5031740;28;20133;-61
2023/03/04 10:29:49;;;;;;;0.10;0.10;;;8.50;99.90;;;;;;5028709;28;20491;-61
2023/03/04 10:32:19;;;;;;;0.10;0.10;;;8.60;99.90;;;;;;5024795;28;20052;-61
2023/03/04 10:34:45;;;;;;;0.10;0.10;;;9.10;99.90;;;;;;5030818;28;20041;-61
2023/03/04 10:37:11;;;;;;;0.20;0.20;;;9.60;99.90;;;;;;5027820;28;20046;-61
2023/03/04 10:39:43;;;;;;;0.10;0.10;;;9.60;99.90;;;;;;5028316;28;20401;-60
2023/03/04 10:42:14;;;;;;;0.20;0.20;;;9.40;99.90;;;;;;5028220;28;20146;-61
2023/03/04 10:44:51;;;;;;;0.00;0.00;;;9.10;99.90;;;;;;5001920;28;20045;-61
2023/03/04 10:47:17;;;;;;;0.10;0.10;;;9.00;99.90;;;;;;5026608;28;20045;-61
2023/03/04 10:49:54;;;;;;;0.55;0.55;;;9.00;99.90;;;;;;5027544;28;20480;-61
2023/03/04 10:52:46;;;;;;;0.10;0.10;;;9.00;99.90;;;;;;5029443;28;20080;-61
2023/03/04 10:55:21;;;;;;;0.10;0.10;;;9.10;99.90;;;;;;5026527;28;20401;-61
2023/03/04 10:58:03;;;;;;;0.35;0.35;;;9.20;99.90;;;;;;5029229;28;20044;-61
2023/03/04 11:00:37;;;;;;;1.55;1.45;;;9.30;99.90;;;;;;5028213;28;20041;-61
2023/03/04 11:03:24;;;;;;;0.13;0.13;;;9.30;99.90;;;;;;5024961;28;20045;-62
2023/03/04 11:05:52;;;;;;;0.10;0.10;;;9.30;99.90;;;;;;5025108;28;20501;-62
2023/03/04 11:08:21;;;;;;;0.20;0.20;;;9.20;99.90;;;;;;5028473;28;20126;-61
2023/03/04 11:10:49;;;;;;;0.00;0.00;;;9.20;99.90;;;;;;5020942;28;20045;-61
2023/03/04 11:13:21;;;;;;;0.10;0.10;;;9.10;99.90;;;;;;5030888;28;20115;-61
2023/03/04 11:16:03;;;;;;;0.10;0.10;;;9.00;99.90;;;;;;5029061;28;20561;-61
2023/03/04 11:18:47;;;;;;;1.00;0.95;;;8.90;99.90;;;;;;5030285;28;20057;-61
2023/03/04 11:21:19;;;;;;;1.88;1.05;;;8.80;99.90;;;;;;5019641;28;20081;-60
2023/03/04 11:23:54;;;;;;;0.10;0.10;;;8.90;99.90;;;;;;5028407;28;20481;-61
2023/03/04 11:26:55;;;;;;;0.00;0.00;;;8.90;99.90;;;;;;5033406;28;20401;-61
2023/03/04 11:29:42;;;;;;;0.00;0.00;;;9.00;99.90;;;;;;5028483;28;20038;-61
2023/03/04 11:32:19;;;;;;;0.65;0.65;;;9.10;99.90;;;;;;5029276;28;20057;-61
2023/03/04 11:35:05;;;;;;;0.30;0.30;;;9.40;99.90;;;;;;5029334;28;20049;-61
2023/03/04 11:37:39;;;;;;;0.00;0.00;;;9.50;99.90;;;;;;5026982;28;20037;-62
2023/03/04 11:40:13;;;;;;;0.70;0.70;;;9.40;99.90;;;;;;5027331;28;20064;-61
2023/03/04 11:42:51;;;;;;;0.28;0.25;;;9.40;99.90;;;;;;5029933;28;20477;-61
2023/03/04 11:45:41;;;;;;;2.28;1.00;;;9.50;99.90;;;;;;5029436;28;20096;-61
2023/03/04 11:48:48;;;;;;;0.10;0.10;;;9.60;99.90;;;;;;5028122;28;20116;-61
2023/03/04 11:51:41;;;;;;;0.38;0.38;;;9.60;99.90;;;;;;4979643;28;20068;-61
2023/03/04 11:54:15;;;;;;;0.05;0.05;;;9.80;99.90;;;;;;5024792;28;20182;-61
2023/03/04 11:56:51;;;;;;;0.20;0.20;;;9.80;99.90;;;;;;5030332;28;20420;-61
2023/03/04 11:59:51;;;;;;;0.10;0.10;;;9.80;99.90;;;;;;5024410;28;20052;-61
2023/03/04 12:02:19;;;;;;;0.32;0.32;;;9.70;99.90;;;;;;5029647;28;20061;-62
2023/03/04 12:05:02;;;;;;;0.10;0.10;;;9.60;99.90;;;;;;5027416;28;20049;-61
2023/03/04 12:08:01;;;;;;;1.67;1.58;;;9.60;99.90;;;;;;5028348;28;20149;-62
2023/03/04 12:10:42;;;;;;;0.10;0.10;;;9.50;99.90;;;;;;5028812;28;20088;-61
2023/03/04 12:13:47;;;;;;;0.10;0.10;;;9.60;99.90;;;;;;5029250;28;20049;-62
2023/03/04 12:16:46;;;;;;;2.58;1.42;;;9.50;99.90;;;;;;5012198;28;20061;-62
2023/03/04 12:19:30;;;;;;;1.05;1.05;;;9.50;99.90;;;;;;5028573;28;20049;-62
2023/03/04 12:22:14;;;;;;;;;;;9.30;99.90;;;;;;5023045;28;20053;-62
2023/03/04 12:25:09;;;;;;;0.40;0.40;;;9.30;99.90;;;;;;5028978;28;20420;-62
2023/03/04 12:27:50;;;;;;;0.20;0.20;;;9.10;99.90;;;;;;5010238;28;20128;-62
2023/03/04 12:30:29;;;;;;;0.32;0.22;;;9.20;99.90;;;;;;5030153;28;20041;-62
2023/03/04 12:33:13;;;;;;;0.10;0.10;;;9.10;99.90;;;;;;5030152;28;20041;-62
2023/03/04 12:35:51;;;;;;;0.10;0.10;;;9.30;99.90;;;;;;5027074;28;20053;-62
2023/03/04 12:38:33;;;;;;;0.45;0.45;;;9.30;99.90;;;;;;5029985;28;20046;-62
2023/03/04 12:41:36;;;;;;;0.20;0.20;;;9.40;99.90;;;;;;5028378;28;20128;-62
2023/03/04 12:44:17;;;;;;;0.10;0.10;;;9.60;99.90;;;;;;5024761;28;20341;-62
2023/03/04 12:47:05;;;;;;;1.08;0.98;;;9.70;99.90;;;;;;5026336;28;20041;-62
2023/03/04 12:50:02;;;;;;;0.00;0.00;;;9.80;99.90;;;;;;5025416;28;20049;-62
2023/03/04 12:52:31;;;;;;;0.43;0.43;;;9.80;99.90;;;;;;5026549;28;20056;-62
2023/03/04 12:55:02;;;;;;;0.10;0.10;;;10.00;99.90;;;;;;5024187;28;20131;-61
2023/03/04 12:57:32;;;;;;;0.10;0.10;;;10.00;99.90;;;;;;5026080;28;20042;-61
2023/03/04 13:00:31;;;;;;;0.98;0.98;;;9.80;99.90;;;;;;5027131;28;20042;-61
2023/03/04 13:03:09;;;;;;;0.15;0.15;;;10.60;99.90;;;;;;5026993;28;20045;-61
2023/03/04 13:05:57;;;;;;;0.20;0.20;;;10.90;99.90;;;;;;5025572;28;20435;-62
2023/03/04 13:08:48;;;;;;;0.10;0.10;;;11.00;99.90;;;;;;5022590;28;20569;-61
2023/03/04 13:11:29;;;;;;;2.35;0.75;;;10.80;99.90;;;;;;5003334;28;20062;-61